createdAt,value
2023-01-10T00:02:38.644Z,0
2023-01-10T00:07:38.803Z,0
2023-01-10T00:12:39.092Z,0
2023-01-10T00:17:39.101Z,0
2023-01-10T00:22:39.043Z,0
2023-01-10T00:27:39.706Z,0
2023-01-10T00:32:39.685Z,0
2023-01-10T00:37:39.689Z,0
2023-01-10T00:42:39.659Z,0
2023-01-10T00:47:39.671Z,0
2023-01-10T00:52:39.659Z,0
2023-01-10T00:57:39.698Z,0
2023-01-10T01:02:39.681Z,0
2023-01-10T01:07:39.682Z,0
2023-01-10T01:12:39.665Z,0
2023-01-10T01:17:39.711Z,0
2023-01-10T01:22:39.655Z,0
2023-01-10T01:27:39.651Z,0
2023-01-10T01:32:39.639Z,0
2023-01-10T01:37:39.685Z,0
2023-01-10T01:42:39.649Z,0
2023-01-10T01:47:39.646Z,0
2023-01-10T01:52:39.628Z,0
2023-01-10T01:57:39.652Z,0
2023-01-10T02:02:39.949Z,0
2023-01-10T02:07:39.651Z,0
2023-01-10T02:12:39.649Z,0
2023-01-10T02:17:39.639Z,0
2023-01-10T02:22:39.641Z,0
2023-01-10T02:27:39.607Z,0
2023-01-10T02:32:50.470Z,0
2023-01-10T02:37:39.643Z,0
2023-01-10T02:42:39.616Z,0
2023-01-10T02:47:39.632Z,0
2023-01-10T02:52:39.595Z,0
2023-01-10T02:57:39.637Z,0
2023-01-10T03:02:39.627Z,0
2023-01-10T03:07:39.585Z,0
2023-01-10T03:12:39.579Z,0
2023-01-10T03:17:39.621Z,0
2023-01-10T03:22:39.601Z,0
2023-01-10T03:27:39.574Z,0
2023-01-10T03:32:39.580Z,0
2023-01-10T03:37:39.612Z,0
2023-01-10T03:42:39.575Z,0
2023-01-10T03:47:39.585Z,0
2023-01-10T03:52:39.588Z,0
2023-01-10T03:57:39.602Z,0
2023-01-10T04:02:39.567Z,0
2023-01-10T04:07:39.571Z,0
2023-01-10T04:12:39.556Z,0
2023-01-10T04:17:39.586Z,0
2023-01-10T04:22:39.563Z,0
2023-01-10T04:27:39.566Z,0
2023-01-10T04:32:39.544Z,0
2023-01-10T04:37:39.588Z,0
2023-01-10T04:42:39.557Z,0
2023-01-10T04:47:39.538Z,0
2023-01-10T04:52:39.553Z,0
2023-01-10T04:57:39.536Z,0
2023-01-10T05:02:39.870Z,0
2023-01-10T05:07:39.791Z,0
2023-01-10T05:12:39.773Z,0
2023-01-10T05:17:40.398Z,0
2023-01-10T05:22:40.023Z,0
2023-01-10T05:27:40.010Z,0
2023-01-10T05:32:40.044Z,0
2023-01-10T05:37:40.059Z,0
2023-01-10T05:42:40.020Z,0
2023-01-10T05:47:40.006Z,0
2023-01-10T05:52:40.002Z,0
2023-01-10T05:57:40.018Z,0
2023-01-10T06:02:40.072Z,0
2023-01-10T06:07:39.977Z,0
2023-01-10T06:12:40.011Z,0
2023-01-10T06:17:40.017Z,0
2023-01-10T06:22:39.975Z,0
2023-01-10T06:27:39.970Z,0
2023-01-10T06:32:39.963Z,0
2023-01-10T06:37:40.038Z,0
2023-01-10T06:42:40.005Z,0
2023-01-10T06:47:39.995Z,0
2023-01-10T06:52:39.993Z,0
2023-01-10T06:57:40.040Z,0
2023-01-10T07:02:40.514Z,0
2023-01-10T07:07:40.211Z,0
2023-01-10T07:12:40.208Z,0
2023-01-10T07:17:40.248Z,0
2023-01-10T07:22:40.230Z,0
2023-01-10T07:27:40.469Z,0
2023-01-10T07:32:40.463Z,0
2023-01-10T07:37:40.490Z,4
2023-01-10T07:42:40.445Z,5
2023-01-10T07:47:40.459Z,6
2023-01-10T07:52:40.448Z,7
2023-01-10T07:57:40.445Z,7
2023-01-10T08:02:40.540Z,7
2023-01-10T08:07:40.447Z,6
2023-01-10T08:12:40.695Z,6
2023-01-10T08:17:40.745Z,26
2023-01-10T08:22:40.682Z,32
2023-01-10T08:27:40.927Z,11
2023-01-10T08:32:40.937Z,11
2023-01-10T08:37:40.952Z,16
2023-01-10T08:42:40.935Z,10
2023-01-10T08:47:41.873Z,8
2023-01-10T08:52:41.845Z,16
2023-01-10T08:57:41.877Z,34
2023-01-10T09:02:41.907Z,29
2023-01-10T09:07:41.832Z,55
2023-01-10T09:12:41.816Z,57
2023-01-10T09:17:43.540Z,46
2023-01-10T09:22:43.518Z,40
2023-01-10T09:27:43.546Z,30
2023-01-10T09:32:43.531Z,47
2023-01-10T09:37:43.596Z,95
2023-01-10T09:42:43.520Z,51
2023-01-10T09:47:43.506Z,30
2023-01-10T09:52:43.541Z,43
2023-01-10T09:57:43.544Z,37
2023-01-10T10:02:43.527Z,25
2023-01-10T10:07:44.045Z,21
2023-01-10T10:12:44.037Z,27
2023-01-10T10:17:44.069Z,26
2023-01-10T10:22:45.356Z,24
2023-01-10T10:27:45.337Z,32
2023-01-10T10:32:45.325Z,34
2023-01-10T10:37:45.377Z,24
2023-01-10T10:42:45.348Z,62
2023-01-10T10:47:45.319Z,78
2023-01-10T10:52:45.348Z,72
2023-01-10T10:57:55.551Z,66
2023-01-10T11:02:45.356Z,55
2023-01-10T11:07:45.322Z,55
2023-01-10T11:12:45.310Z,57
2023-01-10T11:17:45.328Z,44
2023-01-10T11:22:45.450Z,29
2023-01-10T11:27:45.406Z,36
2023-01-10T11:32:45.316Z,58
2023-01-10T11:37:45.613Z,32
2023-01-10T11:42:45.792Z,28
2023-01-10T11:47:45.936Z,34
2023-01-10T11:52:45.810Z,28
2023-01-10T11:57:45.806Z,40
2023-01-10T12:02:45.811Z,75
2023-01-10T12:07:45.790Z,116
2023-01-10T12:12:45.808Z,169
2023-01-10T12:17:45.827Z,127
2023-01-10T12:22:45.798Z,135
2023-01-10T12:27:45.810Z,134
2023-01-10T12:32:45.887Z,132
2023-01-10T12:37:45.818Z,134
2023-01-10T12:42:45.787Z,55
2023-01-10T12:47:45.809Z,32
2023-01-10T12:52:45.883Z,28
2023-01-10T12:57:45.807Z,50
2023-01-10T13:02:45.794Z,101
2023-01-10T13:07:45.754Z,52
2023-01-10T13:12:45.800Z,32
2023-01-10T13:17:45.802Z,24
2023-01-10T13:22:45.770Z,31
2023-01-10T13:27:45.767Z,48
2023-01-10T13:32:45.751Z,53
2023-01-10T13:37:46.083Z,54
2023-01-10T13:42:46.031Z,56
2023-01-10T13:47:45.994Z,52
2023-01-10T13:52:46.033Z,49
2023-01-10T13:57:46.034Z,45
2023-01-10T14:02:45.989Z,38
2023-01-10T14:07:46.009Z,33
2023-01-10T14:12:45.989Z,29
2023-01-10T14:17:46.026Z,26
2023-01-10T14:22:45.993Z,25
2023-01-10T14:27:45.995Z,26
2023-01-10T14:32:45.998Z,21
2023-01-10T14:37:46.017Z,18
2023-01-10T14:42:45.986Z,15
2023-01-10T14:47:45.955Z,12
2023-01-10T14:52:46.007Z,15
2023-01-10T14:57:46.011Z,14
2023-01-10T15:02:45.975Z,11
2023-01-10T15:07:45.988Z,4
2023-01-10T15:12:46.066Z,3
2023-01-10T15:17:46.035Z,1
2023-01-10T15:22:46.202Z,0
2023-01-10T15:27:46.291Z,0
2023-01-10T15:32:46.193Z,0
2023-01-10T15:37:46.245Z,0
2023-01-10T15:42:46.851Z,0
2023-01-10T15:47:46.903Z,0
2023-01-10T15:52:46.869Z,0
2023-01-10T15:57:46.910Z,0
2023-01-10T16:02:47.027Z,0
2023-01-10T16:07:46.880Z,0
2023-01-10T16:12:46.851Z,0
2023-01-10T16:17:46.910Z,0
2023-01-10T16:22:46.899Z,0
2023-01-10T16:27:46.889Z,0
2023-01-10T16:32:46.884Z,0
2023-01-10T16:37:46.983Z,0
2023-01-10T16:42:46.879Z,0
2023-01-10T16:47:46.841Z,0
2023-01-10T16:52:46.876Z,0
2023-01-10T16:57:46.905Z,0
2023-01-10T17:02:46.870Z,0
2023-01-10T17:07:46.849Z,0
2023-01-10T17:12:46.889Z,0
2023-01-10T17:17:46.886Z,0
2023-01-10T17:22:46.863Z,0
2023-01-10T17:27:46.833Z,0
2023-01-10T17:32:46.850Z,0
2023-01-10T17:37:46.944Z,0
2023-01-10T17:42:46.848Z,0
2023-01-10T17:47:46.865Z,0
2023-01-10T17:52:46.891Z,0
2023-01-10T17:57:46.844Z,0
2023-01-10T18:02:46.918Z,0
2023-01-10T18:07:46.828Z,0
2023-01-10T18:12:46.805Z,0
2023-01-10T18:17:47.161Z,0
2023-01-10T18:22:47.092Z,0
2023-01-10T18:27:47.065Z,0
2023-01-10T18:32:47.639Z,0
2023-01-10T18:37:47.348Z,0
2023-01-10T18:42:47.300Z,0
2023-01-10T18:47:47.289Z,0
2023-01-10T18:52:47.314Z,0
2023-01-10T18:57:47.315Z,0
2023-01-10T19:02:47.437Z,0
2023-01-10T19:07:47.315Z,0
2023-01-10T19:12:47.306Z,0
2023-01-10T19:17:48.222Z,0
2023-01-10T19:22:48.192Z,0
2023-01-10T19:27:48.146Z,0
2023-01-10T19:32:48.150Z,0
2023-01-10T19:37:48.225Z,0
2023-01-10T19:42:48.175Z,0
2023-01-10T19:47:48.171Z,0
2023-01-10T19:52:48.148Z,0
2023-01-10T19:57:48.209Z,0
2023-01-10T20:02:48.184Z,0
2023-01-10T20:07:48.145Z,0
2023-01-10T20:12:48.168Z,0
2023-01-10T20:17:48.208Z,0
2023-01-10T20:22:48.735Z,0
2023-01-10T20:27:48.383Z,0
2023-01-10T20:32:48.391Z,0
2023-01-10T20:37:48.445Z,0
2023-01-10T20:42:48.371Z,0
2023-01-10T20:47:48.392Z,0
2023-01-10T20:52:49.077Z,0
2023-01-10T20:57:49.039Z,0
2023-01-10T21:02:49.006Z,0
2023-01-10T21:07:48.997Z,0
2023-01-10T21:12:48.994Z,0
2023-01-10T21:17:49.032Z,0
2023-01-10T21:22:49.008Z,0
2023-01-10T21:27:48.975Z,0
2023-01-10T21:32:48.960Z,0
2023-01-10T21:37:49.020Z,0
2023-01-10T21:42:48.949Z,0
2023-01-10T21:47:48.991Z,0
2023-01-10T21:52:48.922Z,0
2023-01-10T21:57:48.979Z,0
2023-01-10T22:02:48.977Z,0
2023-01-10T22:07:48.957Z,0
2023-01-10T22:12:48.938Z,0
2023-01-10T22:17:48.979Z,0
2023-01-10T22:22:48.979Z,0
2023-01-10T22:27:48.956Z,0
2023-01-10T22:32:48.951Z,0
2023-01-10T22:37:48.955Z,0
2023-01-10T22:42:48.944Z,0
2023-01-10T22:47:48.947Z,0
2023-01-10T22:52:48.975Z,0
2023-01-10T22:57:48.940Z,0
2023-01-10T23:02:48.982Z,0
2023-01-10T23:07:48.944Z,0
2023-01-10T23:12:48.923Z,0
2023-01-10T23:17:48.964Z,0
2023-01-10T23:22:48.937Z,0
2023-01-10T23:27:48.941Z,0
2023-01-10T23:32:48.891Z,0
2023-01-10T23:37:48.940Z,0
2023-01-10T23:42:48.929Z,0
2023-01-10T23:47:48.912Z,0
2023-01-10T23:52:48.925Z,0
2023-01-10T23:57:48.934Z,0
